CDT,Max TemperatureF,Mean TemperatureF,Min TemperatureF,Max Dew PointF,MeanDew PointF,Min DewpointF,Max Humidity, Mean Humidity, Min Humidity, Max Sea Level PressureIn, Mean Sea Level PressureIn, Min Sea Level PressureIn, Max VisibilityMiles, Mean VisibilityMiles, Min VisibilityMiles, Max Wind SpeedMPH, Mean Wind SpeedMPH, Max Gust SpeedMPH,PrecipitationIn, CloudCover, Events, WindDirDegrees
2012-10-1,73,62,51,54,50,45,100,73,38,30.12,30.05,29.97,10,10,7,25,9,37,0.00,2,,343
2012-10-2,73,57,41,46,42,36,93,61,29,30.12,30.03,29.91,10,10,10,10,7,,0.00,0,,237
2012-10-3,82,66,50,54,49,45,87,59,30,29.93,29.90,29.84,10,10,10,24,11,30,0.00,0,,172
2012-10-4,64,57,50,54,38,32,77,51,36,30.31,30.19,29.92,10,10,10,31,16,41,0.00,6,,27
2012-10-5,55,48,42,37,34,28,76,56,41,30.29,30.22,30.17,10,10,10,22,10,26,0.00,5,,64
2012-10-6,44,40,37,36,32,30,87,69,61,30.35,30.30,30.26,10,10,7,15,11,20,0.00,8,,66
2012-10-7,50,41,32,34,32,30,93,73,47,30.35,30.25,30.15,10,10,10,13,6,16,0.00,5,,171
2012-10-8,69,50,32,37,34,32,100,61,28,30.16,30.03,29.90,10,10,7,22,11,28,0.00,0,,203
2012-10-9,73,57,41,41,36,27,87,50,20,30.18,29.94,29.81,10,10,7,25,14,33,0.00,0,,358
2012-10-10,68,50,33,43,35,27,93,58,26,30.29,30.19,30.09,10,10,10,21,8,24,0.00,1,,137
2012-10-11,86,66,46,61,51,39,94,65,31,30.11,30.04,29.97,10,10,5,29,14,34,0.00,0,,193
2012-10-12,66,56,46,61,43,34,94,67,51,30.26,30.14,29.93,10,9,2,20,11,22,0.15,6,,39
2012-10-13,77,67,57,63,51,30,100,63,19,29.93,29.85,29.75,10,10,3,30,18,38,0.15,2,,227
2012-10-14,77,62,46,46,41,34,87,54,21,30.22,30.12,29.91,10,10,4,22,15,28,0.00,0,,318
2012-10-15,86,64,42,45,39,32,87,49,14,30.17,30.01,29.85,10,10,10,24,11,33,0.00,0,,208
2012-10-16,80,63,46,45,41,36,87,47,21,29.85,29.70,29.52,10,10,4,15,10,21,0.00,0,,171
2012-10-17,68,55,42,43,30,19,71,36,17,29.94,29.72,29.46,10,10,10,36,16,45,0.00,0,,345
2012-10-18,64,48,32,28,24,19,80,44,19,30.10,30.04,29.93,10,10,10,21,8,29,0.00,0,,310
2012-10-19,77,56,35,36,24,16,57,34,15,30.09,29.98,29.84,10,10,10,13,9,18,0.00,0,,257
2012-10-20,80,58,37,41,36,32,81,48,18,29.84,29.76,29.71,10,10,7,10,7,,0.00,0,,141
2012-10-21,91,66,42,41,33,28,76,38,10,29.76,29.71,29.67,10,10,10,25,9,32,0.00,0,,215
2012-10-22,78,63,48,54,43,32,94,53,30,29.92,29.83,29.76,10,9,3,15,8,,0.00,1,,315
2012-10-23,91,70,50,55,39,28,82,39,11,29.83,29.78,29.74,10,10,7,23,14,34,0.00,0,,206
2012-10-24,80,70,59,61,49,36,69,49,28,29.83,29.75,29.63,10,10,10,28,15,33,0.00,0,,202
2012-10-25,71,54,37,63,41,32,94,78,70,30.19,29.93,29.64,10,10,7,36,24,45,0.00,6,,345
2012-10-26,,,,,,,,,,,,,,,,,,,,,,
2012-10-27,42,38,33,23,23,21,65,56,42,30.22,30.18,30.15,10,10,10,9,8,,0.00,0,,151
2012-10-28,64,45,26,27,23,19,80,48,18,30.24,30.17,30.10,10,10,7,17,8,24,0.00,0,,198
2012-10-29,71,53,35,32,29,27,70,48,23,30.19,30.14,30.06,10,10,10,23,11,28,0.00,0,,193
2012-10-30,80,60,41,36,32,28,70,45,15,30.08,30.03,29.98,10,10,10,18,9,23,0.00,0,,293
2012-10-31,82,60,37,37,32,27,81,45,16,30.11,30.06,30.01,10,10,10,12,5,17,0.00,0,,269